sensor_id;sensor_type;location;lat;lon;timestamp;P1;durP1;ratioP1;P2;durP2;ratioP2
3647;SDS011;1840;48.892;15.312;2023-10-08T00:00:46;7.20;;;3.00;;
3647;SDS011;1840;48.892;15.312;2023-10-08T00:03:18;12.70;;;3.50;;
3647;SDS011;1840;48.892;15.312;2023-10-08T00:05:47;12.40;;;4.40;;
3647;SDS011;1840;48.892;15.312;2023-10-08T00:08:16;16.37;;;3.60;;
3647;SDS011;1840;48.892;15.312;2023-10-08T00:10:45;8.33;;;3.73;;
3647;SDS011;1840;48.892;15.312;2023-10-08T00:13:15;10.30;;;3.90;;
3647;SDS011;1840;48.892;15.312;2023-10-08T00:15:43;11.60;;;4.23;;
3647;SDS011;1840;48.892;15.312;2023-10-08T00:18:19;7.40;;;2.90;;
3647;SDS011;1840;48.892;15.312;2023-10-08T00:20:48;23.47;;;4.60;;
3647;SDS011;1840;48.892;15.312;2023-10-08T00:23:22;9.53;;;3.50;;
3647;SDS011;1840;48.892;15.312;2023-10-08T00:25:52;8.37;;;3.20;;
3647;SDS011;1840;48.892;15.312;2023-10-08T00:28:22;16.90;;;4.13;;
3647;SDS011;1840;48.892;15.312;2023-10-08T00:30:51;9.63;;;3.90;;
3647;SDS011;1840;48.892;15.312;2023-10-08T00:33:21;9.40;;;3.43;;
3647;SDS011;1840;48.892;15.312;2023-10-08T00:35:50;8.53;;;3.20;;
3647;SDS011;1840;48.892;15.312;2023-10-08T00:38:18;15.80;;;3.83;;
3647;SDS011;1840;48.892;15.312;2023-10-08T00:40:47;8.93;;;3.43;;
3647;SDS011;1840;48.892;15.312;2023-10-08T00:43:32;8.97;;;3.37;;
3647;SDS011;1840;48.892;15.312;2023-10-08T00:46:02;12.37;;;4.00;;
3647;SDS011;1840;48.892;15.312;2023-10-08T00:48:44;17.43;;;3.87;;
3647;SDS011;1840;48.892;15.312;2023-10-08T00:51:14;8.20;;;3.33;;
3647;SDS011;1840;48.892;15.312;2023-10-08T00:53:52;9.80;;;3.77;;
3647;SDS011;1840;48.892;15.312;2023-10-08T00:56:26;10.83;;;3.30;;
3647;SDS011;1840;48.892;15.312;2023-10-08T00:59:12;14.67;;;3.90;;
3647;SDS011;1840;48.892;15.312;2023-10-08T01:01:42;11.20;;;3.80;;
3647;SDS011;1840;48.892;15.312;2023-10-08T01:04:17;8.50;;;3.57;;
3647;SDS011;1840;48.892;15.312;2023-10-08T01:06:49;10.00;;;3.60;;
3647;SDS011;1840;48.892;15.312;2023-10-08T01:09:21;10.60;;;3.83;;
3647;SDS011;1840;48.892;15.312;2023-10-08T01:12:08;12.07;;;3.93;;
3647;SDS011;1840;48.892;15.312;2023-10-08T01:14:40;7.00;;;2.80;;
3647;SDS011;1840;48.892;15.312;2023-10-08T01:17:10;10.93;;;3.90;;
3647;SDS011;1840;48.892;15.312;2023-10-08T01:19:41;11.90;;;4.60;;
3647;SDS011;1840;48.892;15.312;2023-10-08T01:22:13;12.07;;;4.07;;
3647;SDS011;1840;48.892;15.312;2023-10-08T01:24:45;10.60;;;4.40;;
3647;SDS011;1840;48.892;15.312;2023-10-08T01:27:15;11.20;;;4.07;;
3647;SDS011;1840;48.892;15.312;2023-10-08T01:29:48;7.70;;;3.70;;
3647;SDS011;1840;48.892;15.312;2023-10-08T01:32:17;9.07;;;4.00;;
3647;SDS011;1840;48.892;15.312;2023-10-08T01:34:47;19.53;;;4.40;;
3647;SDS011;1840;48.892;15.312;2023-10-08T01:37:17;10.20;;;4.10;;
3647;SDS011;1840;48.892;15.312;2023-10-08T01:39:45;13.40;;;4.20;;
3647;SDS011;1840;48.892;15.312;2023-10-08T01:42:16;8.13;;;3.23;;
3647;SDS011;1840;48.892;15.312;2023-10-08T01:44:47;9.60;;;3.80;;
3647;SDS011;1840;48.892;15.312;2023-10-08T01:47:17;8.30;;;3.97;;
3647;SDS011;1840;48.892;15.312;2023-10-08T01:49:46;16.43;;;3.60;;
3647;SDS011;1840;48.892;15.312;2023-10-08T01:52:14;10.20;;;4.27;;
3647;SDS011;1840;48.892;15.312;2023-10-08T01:54:48;18.27;;;3.80;;
3647;SDS011;1840;48.892;15.312;2023-10-08T01:57:16;13.50;;;4.43;;
3647;SDS011;1840;48.892;15.312;2023-10-08T01:59:44;8.80;;;3.27;;
3647;SDS011;1840;48.892;15.312;2023-10-08T02:02:12;11.47;;;3.83;;
3647;SDS011;1840;48.892;15.312;2023-10-08T02:04:42;9.57;;;4.13;;
3647;SDS011;1840;48.892;15.312;2023-10-08T02:07:10;9.80;;;3.50;;
3647;SDS011;1840;48.892;15.312;2023-10-08T02:09:40;19.60;;;3.63;;
3647;SDS011;1840;48.892;15.312;2023-10-08T02:12:09;13.20;;;3.80;;
3647;SDS011;1840;48.892;15.312;2023-10-08T02:14:40;10.80;;;3.60;;
3647;SDS011;1840;48.892;15.312;2023-10-08T02:17:08;7.60;;;3.50;;
3647;SDS011;1840;48.892;15.312;2023-10-08T02:19:38;16.37;;;4.30;;
3647;SDS011;1840;48.892;15.312;2023-10-08T02:22:07;9.43;;;3.77;;
3647;SDS011;1840;48.892;15.312;2023-10-08T02:24:36;12.90;;;4.60;;
3647;SDS011;1840;48.892;15.312;2023-10-08T02:27:07;8.70;;;3.13;;
3647;SDS011;1840;48.892;15.312;2023-10-08T02:29:36;12.40;;;3.67;;
3647;SDS011;1840;48.892;15.312;2023-10-08T02:32:06;9.10;;;3.77;;
3647;SDS011;1840;48.892;15.312;2023-10-08T02:34:34;12.57;;;4.07;;
3647;SDS011;1840;48.892;15.312;2023-10-08T02:37:02;10.80;;;4.10;;
3647;SDS011;1840;48.892;15.312;2023-10-08T02:39:31;8.07;;;3.70;;
3647;SDS011;1840;48.892;15.312;2023-10-08T02:41:59;13.07;;;3.37;;
3647;SDS011;1840;48.892;15.312;2023-10-08T02:44:29;9.57;;;3.50;;
3647;SDS011;1840;48.892;15.312;2023-10-08T02:46:57;12.10;;;4.10;;
3647;SDS011;1840;48.892;15.312;2023-10-08T02:49:26;9.10;;;3.10;;
3647;SDS011;1840;48.892;15.312;2023-10-08T02:51:56;15.93;;;4.83;;
3647;SDS011;1840;48.892;15.312;2023-10-08T02:54:24;8.90;;;3.60;;
3647;SDS011;1840;48.892;15.312;2023-10-08T02:56:59;12.30;;;3.80;;
3647;SDS011;1840;48.892;15.312;2023-10-08T02:59:32;10.87;;;4.03;;
3647;SDS011;1840;48.892;15.312;2023-10-08T03:02:06;11.77;;;3.83;;
3647;SDS011;1840;48.892;15.312;2023-10-08T03:04:40;13.07;;;3.60;;
3647;SDS011;1840;48.892;15.312;2023-10-08T03:07:11;9.47;;;3.73;;
3647;SDS011;1840;48.892;15.312;2023-10-08T03:09:47;10.90;;;4.30;;
3647;SDS011;1840;48.892;15.312;2023-10-08T03:12:17;11.20;;;4.20;;
3647;SDS011;1840;48.892;15.312;2023-10-08T03:14:46;11.03;;;4.00;;
3647;SDS011;1840;48.892;15.312;2023-10-08T03:17:27;16.90;;;3.97;;
3647;SDS011;1840;48.892;15.312;2023-10-08T03:19:56;13.20;;;4.50;;
3647;SDS011;1840;48.892;15.312;2023-10-08T03:22:45;9.50;;;3.77;;
3647;SDS011;1840;48.892;15.312;2023-10-08T03:25:13;8.37;;;3.87;;
3647;SDS011;1840;48.892;15.312;2023-10-08T03:27:43;14.77;;;4.13;;
3647;SDS011;1840;48.892;15.312;2023-10-08T03:30:12;13.40;;;4.10;;
3647;SDS011;1840;48.892;15.312;2023-10-08T03:32:42;11.47;;;4.13;;
3647;SDS011;1840;48.892;15.312;2023-10-08T03:35:12;17.70;;;4.10;;
3647;SDS011;1840;48.892;15.312;2023-10-08T03:37:40;17.90;;;4.07;;
3647;SDS011;1840;48.892;15.312;2023-10-08T03:40:12;16.63;;;3.90;;
3647;SDS011;1840;48.892;15.312;2023-10-08T03:42:57;22.27;;;4.83;;
3647;SDS011;1840;48.892;15.312;2023-10-08T03:45:27;16.20;;;5.30;;
3647;SDS011;1840;48.892;15.312;2023-10-08T03:48:12;11.90;;;4.97;;
3647;SDS011;1840;48.892;15.312;2023-10-08T03:50:42;12.63;;;4.40;;
3647;SDS011;1840;48.892;15.312;2023-10-08T03:53:11;13.20;;;4.40;;
3647;SDS011;1840;48.892;15.312;2023-10-08T03:55:39;15.83;;;3.80;;
3647;SDS011;1840;48.892;15.312;2023-10-08T03:58:08;14.87;;;3.80;;
3647;SDS011;1840;48.892;15.312;2023-10-08T04:00:44;22.13;;;4.20;;
3647;SDS011;1840;48.892;15.312;2023-10-08T04:03:12;19.03;;;4.87;;
3647;SDS011;1840;48.892;15.312;2023-10-08T04:05:50;13.47;;;3.80;;
3647;SDS011;1840;48.892;15.312;2023-10-08T04:08:31;10.73;;;3.70;;
3647;SDS011;1840;48.892;15.312;2023-10-08T04:11:09;25.63;;;5.20;;
3647;SDS011;1840;48.892;15.312;2023-10-08T04:13:55;16.10;;;3.67;;
3647;SDS011;1840;48.892;15.312;2023-10-08T04:16:27;12.33;;;4.10;;
3647;SDS011;1840;48.892;15.312;2023-10-08T04:18:56;8.37;;;3.67;;
3647;SDS011;1840;48.892;15.312;2023-10-08T04:21:29;18.83;;;4.47;;
3647;SDS011;1840;48.892;15.312;2023-10-08T04:24:00;18.70;;;4.50;;
3647;SDS011;1840;48.892;15.312;2023-10-08T04:26:31;15.53;;;4.20;;
3647;SDS011;1840;48.892;15.312;2023-10-08T04:29:01;14.07;;;3.83;;
3647;SDS011;1840;48.892;15.312;2023-10-08T04:31:34;28.10;;;4.77;;
3647;SDS011;1840;48.892;15.312;2023-10-08T04:34:04;24.03;;;4.20;;
3647;SDS011;1840;48.892;15.312;2023-10-08T04:36:41;26.83;;;4.70;;
3647;SDS011;1840;48.892;15.312;2023-10-08T04:39:11;15.80;;;4.40;;
3647;SDS011;1840;48.892;15.312;2023-10-08T04:41:42;19.63;;;4.67;;
3647;SDS011;1840;48.892;15.312;2023-10-08T04:44:11;12.93;;;4.57;;
3647;SDS011;1840;48.892;15.312;2023-10-08T04:46:44;12.63;;;4.30;;
3647;SDS011;1840;48.892;15.312;2023-10-08T04:49:18;18.20;;;4.40;;
3647;SDS011;1840;48.892;15.312;2023-10-08T04:51:58;15.60;;;4.60;;
3647;SDS011;1840;48.892;15.312;2023-10-08T04:54:27;16.70;;;4.50;;
3647;SDS011;1840;48.892;15.312;2023-10-08T04:56:58;13.60;;;4.30;;
3647;SDS011;1840;48.892;15.312;2023-10-08T04:59:28;16.53;;;4.40;;
3647;SDS011;1840;48.892;15.312;2023-10-08T05:02:02;14.03;;;4.00;;
3647;SDS011;1840;48.892;15.312;2023-10-08T05:04:46;12.43;;;4.50;;
3647;SDS011;1840;48.892;15.312;2023-10-08T05:07:49;14.50;;;4.40;;
3647;SDS011;1840;48.892;15.312;2023-10-08T05:10:33;11.83;;;4.13;;
3647;SDS011;1840;48.892;15.312;2023-10-08T05:13:19;14.23;;;5.30;;
3647;SDS011;1840;48.892;15.312;2023-10-08T05:15:56;18.03;;;4.40;;
3647;SDS011;1840;48.892;15.312;2023-10-08T05:18:47;11.37;;;4.00;;
3647;SDS011;1840;48.892;15.312;2023-10-08T05:21:34;14.17;;;3.93;;
3647;SDS011;1840;48.892;15.312;2023-10-08T05:24:18;17.40;;;3.93;;
3647;SDS011;1840;48.892;15.312;2023-10-08T05:26:54;14.27;;;4.50;;
3647;SDS011;1840;48.892;15.312;2023-10-08T05:29:46;17.57;;;4.60;;
3647;SDS011;1840;48.892;15.312;2023-10-08T05:32:37;19.97;;;4.60;;
3647;SDS011;1840;48.892;15.312;2023-10-08T05:35:19;18.60;;;4.30;;
3647;SDS011;1840;48.892;15.312;2023-10-08T05:38:14;14.77;;;3.90;;
3647;SDS011;1840;48.892;15.312;2023-10-08T05:40:49;11.80;;;4.10;;
3647;SDS011;1840;48.892;15.312;2023-10-08T05:43:54;11.00;;;4.33;;
3647;SDS011;1840;48.892;15.312;2023-10-08T05:46:39;11.87;;;4.67;;
3647;SDS011;1840;48.892;15.312;2023-10-08T05:49:25;20.43;;;4.47;;
3647;SDS011;1840;48.892;15.312;2023-10-08T05:52:06;15.20;;;4.17;;
3647;SDS011;1840;48.892;15.312;2023-10-08T05:54:52;11.00;;;4.33;;
3647;SDS011;1840;48.892;15.312;2023-10-08T05:57:49;20.30;;;4.67;;
3647;SDS011;1840;48.892;15.312;2023-10-08T06:00:18;11.80;;;4.43;;
3647;SDS011;1840;48.892;15.312;2023-10-08T06:03:04;17.03;;;4.63;;
3647;SDS011;1840;48.892;15.312;2023-10-08T06:05:59;9.93;;;4.00;;
3647;SDS011;1840;48.892;15.312;2023-10-08T06:09:01;17.77;;;4.43;;
3647;SDS011;1840;48.892;15.312;2023-10-08T06:11:47;11.70;;;4.10;;
3647;SDS011;1840;48.892;15.312;2023-10-08T06:14:36;21.53;;;5.10;;
3647;SDS011;1840;48.892;15.312;2023-10-08T06:17:33;16.40;;;5.10;;
3647;SDS011;1840;48.892;15.312;2023-10-08T06:20:24;16.30;;;4.67;;
3647;SDS011;1840;48.892;15.312;2023-10-08T06:22:54;13.90;;;3.90;;
3647;SDS011;1840;48.892;15.312;2023-10-08T06:25:29;18.83;;;5.00;;
3647;SDS011;1840;48.892;15.312;2023-10-08T06:27:57;21.90;;;4.93;;
3647;SDS011;1840;48.892;15.312;2023-10-08T06:30:25;16.77;;;4.10;;
3647;SDS011;1840;48.892;15.312;2023-10-08T06:32:56;16.90;;;4.80;;
3647;SDS011;1840;48.892;15.312;2023-10-08T06:35:24;12.23;;;4.33;;
3647;SDS011;1840;48.892;15.312;2023-10-08T06:37:54;18.40;;;4.57;;
3647;SDS011;1840;48.892;15.312;2023-10-08T06:40:26;15.60;;;4.10;;
3647;SDS011;1840;48.892;15.312;2023-10-08T06:43:11;27.30;;;4.37;;
3647;SDS011;1840;48.892;15.312;2023-10-08T06:45:41;15.40;;;4.07;;
3647;SDS011;1840;48.892;15.312;2023-10-08T06:48:10;8.63;;;3.60;;
3647;SDS011;1840;48.892;15.312;2023-10-08T06:50:44;10.80;;;4.00;;
3647;SDS011;1840;48.892;15.312;2023-10-08T06:53:13;25.77;;;4.80;;
3647;SDS011;1840;48.892;15.312;2023-10-08T06:55:41;17.27;;;4.40;;
3647;SDS011;1840;48.892;15.312;2023-10-08T06:58:11;13.47;;;4.30;;
3647;SDS011;1840;48.892;15.312;2023-10-08T07:00:40;18.43;;;5.00;;
3647;SDS011;1840;48.892;15.312;2023-10-08T07:03:15;20.40;;;4.50;;
3647;SDS011;1840;48.892;15.312;2023-10-08T07:05:45;17.03;;;4.20;;
3647;SDS011;1840;48.892;15.312;2023-10-08T07:08:24;14.63;;;4.50;;
3647;SDS011;1840;48.892;15.312;2023-10-08T07:10:55;12.27;;;4.27;;
3647;SDS011;1840;48.892;15.312;2023-10-08T07:13:26;14.97;;;4.60;;
3647;SDS011;1840;48.892;15.312;2023-10-08T07:15:56;11.30;;;3.97;;
3647;SDS011;1840;48.892;15.312;2023-10-08T07:18:26;11.73;;;4.37;;
3647;SDS011;1840;48.892;15.312;2023-10-08T07:20:58;14.30;;;4.90;;
3647;SDS011;1840;48.892;15.312;2023-10-08T07:23:28;11.03;;;4.73;;
3647;SDS011;1840;48.892;15.312;2023-10-08T07:26:01;10.67;;;3.80;;
3647;SDS011;1840;48.892;15.312;2023-10-08T07:28:38;13.40;;;4.30;;
3647;SDS011;1840;48.892;15.312;2023-10-08T07:31:12;14.83;;;4.27;;
3647;SDS011;1840;48.892;15.312;2023-10-08T07:33:42;9.67;;;4.00;;
3647;SDS011;1840;48.892;15.312;2023-10-08T07:36:10;15.10;;;4.67;;
3647;SDS011;1840;48.892;15.312;2023-10-08T07:38:44;14.27;;;4.40;;
3647;SDS011;1840;48.892;15.312;2023-10-08T07:41:13;13.40;;;5.07;;
3647;SDS011;1840;48.892;15.312;2023-10-08T07:43:43;14.60;;;4.93;;
3647;SDS011;1840;48.892;15.312;2023-10-08T07:46:19;11.47;;;4.90;;
3647;SDS011;1840;48.892;15.312;2023-10-08T07:48:47;14.10;;;4.60;;
3647;SDS011;1840;48.892;15.312;2023-10-08T07:51:16;17.67;;;4.83;;
3647;SDS011;1840;48.892;15.312;2023-10-08T07:53:48;16.83;;;4.80;;
3647;SDS011;1840;48.892;15.312;2023-10-08T07:56:20;16.17;;;5.00;;
3647;SDS011;1840;48.892;15.312;2023-10-08T07:58:51;18.20;;;5.10;;
3647;SDS011;1840;48.892;15.312;2023-10-08T08:01:22;15.30;;;4.47;;
3647;SDS011;1840;48.892;15.312;2023-10-08T08:03:51;16.07;;;4.03;;
3647;SDS011;1840;48.892;15.312;2023-10-08T08:06:19;14.30;;;5.00;;
3647;SDS011;1840;48.892;15.312;2023-10-08T08:08:48;19.10;;;4.50;;
3647;SDS011;1840;48.892;15.312;2023-10-08T08:11:17;16.50;;;4.87;;
3647;SDS011;1840;48.892;15.312;2023-10-08T08:13:52;19.97;;;4.27;;
3647;SDS011;1840;48.892;15.312;2023-10-08T08:16:20;14.80;;;4.03;;
3647;SDS011;1840;48.892;15.312;2023-10-08T08:18:49;13.13;;;4.97;;
3647;SDS011;1840;48.892;15.312;2023-10-08T08:21:21;15.33;;;5.07;;
3647;SDS011;1840;48.892;15.312;2023-10-08T08:23:49;8.23;;;3.37;;
3647;SDS011;1840;48.892;15.312;2023-10-08T08:26:20;5.60;;;1.80;;
3647;SDS011;1840;48.892;15.312;2023-10-08T08:29:07;9.00;;;2.20;;
3647;SDS011;1840;48.892;15.312;2023-10-08T08:31:41;4.00;;;1.77;;
3647;SDS011;1840;48.892;15.312;2023-10-08T08:34:12;4.23;;;2.13;;
3647;SDS011;1840;48.892;15.312;2023-10-08T08:36:46;8.13;;;1.77;;
3647;SDS011;1840;48.892;15.312;2023-10-08T08:39:15;8.83;;;1.50;;
3647;SDS011;1840;48.892;15.312;2023-10-08T08:41:56;15.03;;;1.60;;
3647;SDS011;1840;48.892;15.312;2023-10-08T08:44:29;9.10;;;1.30;;
3647;SDS011;1840;48.892;15.312;2023-10-08T08:47:00;5.43;;;1.40;;
3647;SDS011;1840;48.892;15.312;2023-10-08T08:49:32;4.57;;;1.00;;
3647;SDS011;1840;48.892;15.312;2023-10-08T08:52:03;2.53;;;0.90;;
3647;SDS011;1840;48.892;15.312;2023-10-08T08:54:32;3.03;;;1.00;;
3647;SDS011;1840;48.892;15.312;2023-10-08T08:57:01;2.33;;;0.80;;
3647;SDS011;1840;48.892;15.312;2023-10-08T08:59:34;3.33;;;0.90;;
3647;SDS011;1840;48.892;15.312;2023-10-08T09:02:03;2.07;;;0.90;;
3647;SDS011;1840;48.892;15.312;2023-10-08T09:04:34;1.80;;;0.80;;
3647;SDS011;1840;48.892;15.312;2023-10-08T09:07:04;8.43;;;0.80;;
3647;SDS011;1840;48.892;15.312;2023-10-08T09:09:32;1.80;;;0.60;;
3647;SDS011;1840;48.892;15.312;2023-10-08T09:12:01;2.50;;;0.90;;
3647;SDS011;1840;48.892;15.312;2023-10-08T09:14:31;16.33;;;1.50;;
3647;SDS011;1840;48.892;15.312;2023-10-08T09:17:02;12.27;;;1.40;;
3647;SDS011;1840;48.892;15.312;2023-10-08T09:19:35;7.00;;;0.80;;
3647;SDS011;1840;48.892;15.312;2023-10-08T09:22:04;2.17;;;0.70;;
3647;SDS011;1840;48.892;15.312;2023-10-08T09:24:34;2.23;;;0.80;;
3647;SDS011;1840;48.892;15.312;2023-10-08T09:27:03;1.60;;;0.60;;
3647;SDS011;1840;48.892;15.312;2023-10-08T09:29:33;1.63;;;0.60;;
3647;SDS011;1840;48.892;15.312;2023-10-08T09:32:08;3.03;;;0.70;;
3647;SDS011;1840;48.892;15.312;2023-10-08T09:34:36;1.80;;;0.70;;
3647;SDS011;1840;48.892;15.312;2023-10-08T09:37:05;1.80;;;0.80;;
3647;SDS011;1840;48.892;15.312;2023-10-08T09:39:34;1.60;;;0.70;;
3647;SDS011;1840;48.892;15.312;2023-10-08T09:42:04;11.30;;;1.00;;
3647;SDS011;1840;48.892;15.312;2023-10-08T09:44:35;7.00;;;1.00;;
3647;SDS011;1840;48.892;15.312;2023-10-08T09:47:04;2.43;;;0.90;;
3647;SDS011;1840;48.892;15.312;2023-10-08T09:49:36;1.50;;;0.60;;
3647;SDS011;1840;48.892;15.312;2023-10-08T09:52:08;1.80;;;0.70;;
3647;SDS011;1840;48.892;15.312;2023-10-08T09:54:42;1.67;;;0.70;;
3647;SDS011;1840;48.892;15.312;2023-10-08T09:57:15;1.70;;;0.70;;
3647;SDS011;1840;48.892;15.312;2023-10-08T09:59:48;1.60;;;0.70;;
3647;SDS011;1840;48.892;15.312;2023-10-08T10:02:16;2.40;;;0.70;;
3647;SDS011;1840;48.892;15.312;2023-10-08T10:04:49;1.50;;;0.60;;
3647;SDS011;1840;48.892;15.312;2023-10-08T10:07:19;1.70;;;0.80;;
3647;SDS011;1840;48.892;15.312;2023-10-08T10:09:49;1.50;;;0.60;;
3647;SDS011;1840;48.892;15.312;2023-10-08T10:12:20;1.70;;;0.77;;
3647;SDS011;1840;48.892;15.312;2023-10-08T10:14:56;1.80;;;0.70;;
3647;SDS011;1840;48.892;15.312;2023-10-08T10:17:27;4.80;;;0.80;;
3647;SDS011;1840;48.892;15.312;2023-10-08T10:20:10;4.13;;;0.80;;
3647;SDS011;1840;48.892;15.312;2023-10-08T10:22:41;1.80;;;0.80;;
3647;SDS011;1840;48.892;15.312;2023-10-08T10:25:12;1.90;;;0.70;;
3647;SDS011;1840;48.892;15.312;2023-10-08T10:30:51;2.93;;;0.90;;
3647;SDS011;1840;48.892;15.312;2023-10-08T10:33:19;3.93;;;0.80;;
3647;SDS011;1840;48.892;15.312;2023-10-08T10:35:51;1.83;;;0.80;;
3647;SDS011;1840;48.892;15.312;2023-10-08T10:38:20;2.73;;;0.80;;
3647;SDS011;1840;48.892;15.312;2023-10-08T10:40:53;1.57;;;0.70;;
3647;SDS011;1840;48.892;15.312;2023-10-08T10:43:24;1.50;;;0.70;;
3647;SDS011;1840;48.892;15.312;2023-10-08T10:46:01;1.80;;;0.80;;
3647;SDS011;1840;48.892;15.312;2023-10-08T10:48:50;1.60;;;0.70;;
3647;SDS011;1840;48.892;15.312;2023-10-08T10:51:33;2.17;;;0.90;;
3647;SDS011;1840;48.892;15.312;2023-10-08T10:54:01;2.13;;;0.90;;
3647;SDS011;1840;48.892;15.312;2023-10-08T10:56:36;1.70;;;0.90;;
3647;SDS011;1840;48.892;15.312;2023-10-08T10:59:09;2.77;;;0.90;;
3647;SDS011;1840;48.892;15.312;2023-10-08T11:01:47;6.33;;;2.13;;
3647;SDS011;1840;48.892;15.312;2023-10-08T11:04:19;1.53;;;0.80;;
3647;SDS011;1840;48.892;15.312;2023-10-08T11:06:55;1.40;;;0.80;;
3647;SDS011;1840;48.892;15.312;2023-10-08T11:09:24;2.73;;;1.10;;
3647;SDS011;1840;48.892;15.312;2023-10-08T11:12:05;1.83;;;1.00;;
3647;SDS011;1840;48.892;15.312;2023-10-08T11:14:38;2.93;;;1.27;;
3647;SDS011;1840;48.892;15.312;2023-10-08T11:17:11;2.70;;;1.30;;
3647;SDS011;1840;48.892;15.312;2023-10-08T11:19:41;2.10;;;1.10;;
3647;SDS011;1840;48.892;15.312;2023-10-08T11:22:12;4.60;;;1.20;;
3647;SDS011;1840;48.892;15.312;2023-10-08T11:24:43;2.70;;;1.20;;
3647;SDS011;1840;48.892;15.312;2023-10-08T11:27:14;4.43;;;1.33;;
3647;SDS011;1840;48.892;15.312;2023-10-08T11:29:55;4.00;;;1.93;;
3647;SDS011;1840;48.892;15.312;2023-10-08T11:32:28;4.20;;;1.50;;
3647;SDS011;1840;48.892;15.312;2023-10-08T11:34:59;3.33;;;1.73;;
3647;SDS011;1840;48.892;15.312;2023-10-08T11:37:44;5.03;;;1.70;;
3647;SDS011;1840;48.892;15.312;2023-10-08T11:40:21;4.37;;;1.83;;
3647;SDS011;1840;48.892;15.312;2023-10-08T11:42:55;7.03;;;1.57;;
3647;SDS011;1840;48.892;15.312;2023-10-08T11:45:24;3.83;;;1.43;;
3647;SDS011;1840;48.892;15.312;2023-10-08T11:47:55;5.30;;;1.70;;
3647;SDS011;1840;48.892;15.312;2023-10-08T11:50:24;3.20;;;1.60;;
3647;SDS011;1840;48.892;15.312;2023-10-08T11:52:58;3.83;;;1.97;;
3647;SDS011;1840;48.892;15.312;2023-10-08T11:55:30;5.00;;;1.57;;
3647;SDS011;1840;48.892;15.312;2023-10-08T11:58:02;3.17;;;1.50;;
3647;SDS011;1840;48.892;15.312;2023-10-08T12:00:36;2.73;;;1.50;;
3647;SDS011;1840;48.892;15.312;2023-10-08T12:03:12;5.03;;;1.70;;
3647;SDS011;1840;48.892;15.312;2023-10-08T12:05:45;4.60;;;1.40;;
3647;SDS011;1840;48.892;15.312;2023-10-08T12:08:16;4.87;;;2.03;;
3647;SDS011;1840;48.892;15.312;2023-10-08T12:10:47;2.77;;;1.27;;
3647;SDS011;1840;48.892;15.312;2023-10-08T12:13:21;3.33;;;1.63;;
3647;SDS011;1840;48.892;15.312;2023-10-08T12:15:51;5.53;;;2.03;;
3647;SDS011;1840;48.892;15.312;2023-10-08T12:18:33;2.80;;;1.43;;
3647;SDS011;1840;48.892;15.312;2023-10-08T12:21:06;3.10;;;1.50;;
3647;SDS011;1840;48.892;15.312;2023-10-08T12:23:37;3.97;;;2.13;;
3647;SDS011;1840;48.892;15.312;2023-10-08T12:26:05;4.67;;;1.63;;
3647;SDS011;1840;48.892;15.312;2023-10-08T12:28:34;5.87;;;2.00;;
3647;SDS011;1840;48.892;15.312;2023-10-08T12:31:03;3.40;;;1.80;;
3647;SDS011;1840;48.892;15.312;2023-10-08T12:33:31;5.60;;;1.83;;
3647;SDS011;1840;48.892;15.312;2023-10-08T12:36:02;4.80;;;1.97;;
3647;SDS011;1840;48.892;15.312;2023-10-08T12:38:38;12.87;;;1.80;;
3647;SDS011;1840;48.892;15.312;2023-10-08T12:41:07;3.77;;;1.90;;
3647;SDS011;1840;48.892;15.312;2023-10-08T12:43:39;6.83;;;2.53;;
3647;SDS011;1840;48.892;15.312;2023-10-08T12:46:11;3.40;;;2.10;;
3647;SDS011;1840;48.892;15.312;2023-10-08T12:48:45;5.63;;;2.50;;
3647;SDS011;1840;48.892;15.312;2023-10-08T12:51:20;6.13;;;2.27;;
3647;SDS011;1840;48.892;15.312;2023-10-08T12:53:51;5.30;;;2.20;;
3647;SDS011;1840;48.892;15.312;2023-10-08T12:56:35;3.90;;;2.00;;
3647;SDS011;1840;48.892;15.312;2023-10-08T12:59:06;4.47;;;1.90;;
3647;SDS011;1840;48.892;15.312;2023-10-08T13:01:34;7.03;;;2.37;;
3647;SDS011;1840;48.892;15.312;2023-10-08T13:04:07;6.13;;;2.10;;
3647;SDS011;1840;48.892;15.312;2023-10-08T13:06:44;4.67;;;2.00;;
3647;SDS011;1840;48.892;15.312;2023-10-08T13:09:12;3.70;;;2.37;;
3647;SDS011;1840;48.892;15.312;2023-10-08T13:11:40;7.93;;;2.40;;
3647;SDS011;1840;48.892;15.312;2023-10-08T13:14:10;5.43;;;2.33;;
3647;SDS011;1840;48.892;15.312;2023-10-08T13:16:39;5.17;;;2.17;;
3647;SDS011;1840;48.892;15.312;2023-10-08T13:19:07;6.07;;;2.67;;
3647;SDS011;1840;48.892;15.312;2023-10-08T13:21:35;6.50;;;2.70;;
3647;SDS011;1840;48.892;15.312;2023-10-08T13:24:06;5.53;;;2.23;;
3647;SDS011;1840;48.892;15.312;2023-10-08T13:26:36;5.00;;;2.47;;
3647;SDS011;1840;48.892;15.312;2023-10-08T13:29:05;9.33;;;3.17;;
3647;SDS011;1840;48.892;15.312;2023-10-08T13:31:36;5.70;;;2.10;;
3647;SDS011;1840;48.892;15.312;2023-10-08T13:34:04;6.13;;;2.20;;
3647;SDS011;1840;48.892;15.312;2023-10-08T13:36:36;7.63;;;2.70;;
3647;SDS011;1840;48.892;15.312;2023-10-08T13:39:07;4.73;;;2.60;;
3647;SDS011;1840;48.892;15.312;2023-10-08T13:41:36;6.40;;;2.40;;
3647;SDS011;1840;48.892;15.312;2023-10-08T13:44:05;7.50;;;2.40;;
3647;SDS011;1840;48.892;15.312;2023-10-08T13:46:33;7.17;;;2.73;;
3647;SDS011;1840;48.892;15.312;2023-10-08T13:49:03;4.27;;;2.33;;
3647;SDS011;1840;48.892;15.312;2023-10-08T13:51:34;4.23;;;2.57;;
3647;SDS011;1840;48.892;15.312;2023-10-08T13:54:04;4.43;;;2.30;;
3647;SDS011;1840;48.892;15.312;2023-10-08T13:56:37;4.77;;;2.50;;
3647;SDS011;1840;48.892;15.312;2023-10-08T13:59:08;4.97;;;2.40;;
3647;SDS011;1840;48.892;15.312;2023-10-08T14:01:41;7.87;;;3.40;;
3647;SDS011;1840;48.892;15.312;2023-10-08T14:04:13;5.90;;;2.70;;
3647;SDS011;1840;48.892;15.312;2023-10-08T14:06:46;7.80;;;2.43;;
3647;SDS011;1840;48.892;15.312;2023-10-08T14:09:20;14.00;;;3.40;;
3647;SDS011;1840;48.892;15.312;2023-10-08T14:12:00;9.20;;;3.40;;
3647;SDS011;1840;48.892;15.312;2023-10-08T14:14:28;5.50;;;2.30;;
3647;SDS011;1840;48.892;15.312;2023-10-08T14:16:58;6.63;;;2.90;;
3647;SDS011;1840;48.892;15.312;2023-10-08T14:19:32;5.07;;;2.03;;
3647;SDS011;1840;48.892;15.312;2023-10-08T14:22:06;5.50;;;2.13;;
3647;SDS011;1840;48.892;15.312;2023-10-08T14:24:41;4.93;;;2.53;;
3647;SDS011;1840;48.892;15.312;2023-10-08T14:27:14;4.00;;;1.90;;
3647;SDS011;1840;48.892;15.312;2023-10-08T14:29:43;6.00;;;2.57;;
3647;SDS011;1840;48.892;15.312;2023-10-08T14:32:13;7.43;;;2.43;;
3647;SDS011;1840;48.892;15.312;2023-10-08T14:34:42;5.63;;;2.50;;
3647;SDS011;1840;48.892;15.312;2023-10-08T14:37:28;5.50;;;2.63;;
3647;SDS011;1840;48.892;15.312;2023-10-08T14:40:28;8.90;;;2.40;;
3647;SDS011;1840;48.892;15.312;2023-10-08T14:43:15;4.70;;;2.40;;
3647;SDS011;1840;48.892;15.312;2023-10-08T14:45:46;7.37;;;2.90;;
3647;SDS011;1840;48.892;15.312;2023-10-08T14:48:15;7.90;;;3.03;;
3647;SDS011;1840;48.892;15.312;2023-10-08T14:50:43;7.10;;;2.57;;
3647;SDS011;1840;48.892;15.312;2023-10-08T14:53:12;16.83;;;4.20;;
3647;SDS011;1840;48.892;15.312;2023-10-08T14:55:40;8.87;;;3.43;;
3647;SDS011;1840;48.892;15.312;2023-10-08T14:58:08;8.53;;;3.60;;
3647;SDS011;1840;48.892;15.312;2023-10-08T15:00:39;6.10;;;3.60;;
3647;SDS011;1840;48.892;15.312;2023-10-08T15:03:08;8.67;;;3.13;;
3647;SDS011;1840;48.892;15.312;2023-10-08T15:05:38;9.43;;;3.20;;
3647;SDS011;1840;48.892;15.312;2023-10-08T15:08:06;8.17;;;3.13;;
3647;SDS011;1840;48.892;15.312;2023-10-08T15:10:37;6.53;;;3.17;;
3647;SDS011;1840;48.892;15.312;2023-10-08T15:13:05;6.40;;;2.97;;
3647;SDS011;1840;48.892;15.312;2023-10-08T15:15:34;8.13;;;2.80;;
3647;SDS011;1840;48.892;15.312;2023-10-08T15:18:04;4.97;;;2.67;;
3647;SDS011;1840;48.892;15.312;2023-10-08T15:20:33;3.60;;;2.30;;
3647;SDS011;1840;48.892;15.312;2023-10-08T15:23:01;4.17;;;2.37;;
3647;SDS011;1840;48.892;15.312;2023-10-08T15:25:31;8.73;;;2.70;;
3647;SDS011;1840;48.892;15.312;2023-10-08T15:27:59;3.50;;;2.20;;
3647;SDS011;1840;48.892;15.312;2023-10-08T15:30:27;4.67;;;3.07;;
3647;SDS011;1840;48.892;15.312;2023-10-08T15:32:55;4.30;;;2.67;;